Terminal Aerodrome Forecast
Issued by NWS

Home | Current Version | Previous Version | Text Only | Print | Product List | Glossary On
Versions: 1 2 3 4 5 6 7 8 9 10 11 12 13 14 15 16 17 18 19 20 21
407
FTUS41 KPBZ 272320
TAFDUJ
TAF
KDUJ 272320Z 2800/2824 VRB05KT P6SM OVC080
      TEMPO 2800/2802 OVC025
     FM282100 17012G20KT 5SM -RA OVC015=

USA.gov is the U.S. government's official web portal to all federal, state and local government web resources and services.